Time;durP1;ratioP1;P1;durP2;ratioP2;P2;SDS_P1;SDS_P2;PMS_P1;PMS_P2;Temp;Humidity;BMP_temperature;BMP_pressure;BME280_temperature;BME280_humidity;BME280_pressure;Samples;Min_cycle;Max_cycle;Signal;HPM_P1;HPM_P2
2021/07/07 00:01:00;;;;;;;12.07;2.55;;;13.80;99.90;;;;;;6305414;22;20046;-78
2021/07/07 00:03:26;;;;;;;17.08;2.47;;;13.80;99.90;;;;;;6342512;22;20380;-78
2021/07/07 00:05:52;;;;;;;18.08;2.80;;;13.80;99.90;;;;;;6338434;22;20022;-78
2021/07/07 00:08:18;;;;;;;10.95;2.30;;;13.80;99.90;;;;;;6316207;22;20006;-78
2021/07/07 00:10:44;;;;;;;10.65;2.42;;;13.70;99.90;;;;;;6344988;22;20015;-78
2021/07/07 00:13:10;;;;;;;14.07;2.33;;;13.70;99.90;;;;;;6316941;22;20064;-78
2021/07/07 00:15:36;;;;;;;12.15;2.45;;;13.70;99.90;;;;;;6334040;22;20014;-77
2021/07/07 00:18:08;;;;;;;7.68;2.40;;;13.70;99.90;;;;;;6307763;22;20014;-79
2021/07/07 00:20:53;;;;;;;8.50;2.55;;;13.60;99.90;;;;;;6335264;22;20439;-78
2021/07/07 00:23:20;;;;;;;7.05;2.28;;;13.60;99.90;;;;;;6305248;22;20010;-78
2021/07/07 00:25:46;;;;;;;10.55;2.70;;;13.60;99.90;;;;;;6318219;22;20063;-78
2021/07/07 00:28:12;;;;;;;13.07;2.30;;;13.50;99.90;;;;;;6318480;22;20089;-78
2021/07/07 00:30:38;;;;;;;11.98;2.65;;;13.50;99.90;;;;;;6306534;22;20098;-78
2021/07/07 00:33:04;;;;;;;8.85;2.63;;;13.50;99.90;;;;;;6336496;22;20033;-78
2021/07/07 00:35:30;;;;;;;8.30;2.90;;;13.40;99.90;;;;;;6336393;22;20077;-78
2021/07/07 00:37:56;;;;;;;15.25;3.20;;;13.40;99.90;;;;;;6317316;22;20038;-78
2021/07/07 00:40:22;;;;;;;12.35;2.40;;;13.40;99.90;;;;;;6334464;22;20339;-78
2021/07/07 00:42:49;;;;;;;13.25;2.60;;;13.40;99.90;;;;;;6346774;22;20349;-78
2021/07/07 00:45:15;;;;;;;11.80;2.85;;;13.40;99.90;;;;;;6305299;22;20501;-78
2021/07/07 00:47:45;;;;;;;15.15;2.67;;;13.40;99.90;;;;;;6315980;22;20019;-78
2021/07/07 00:50:12;;;;;;;11.95;2.60;;;13.40;99.90;;;;;;6313638;22;20011;-79
2021/07/07 00:52:39;;;;;;;9.23;2.35;;;13.40;99.90;;;;;;6345612;22;20072;-77
2021/07/07 00:55:11;;;;;;;9.82;2.25;;;13.40;99.90;;;;;;6337816;22;20098;-79
2021/07/07 00:57:37;;;;;;;9.30;2.22;;;13.30;99.90;;;;;;6318052;22;20470;-78
2021/07/07 01:00:09;;;;;;;19.58;3.35;;;13.30;99.90;;;;;;6346655;22;20115;-79
2021/07/07 01:02:40;;;;;;;11.23;2.67;;;13.30;99.90;;;;;;6307366;22;20015;-79
2021/07/07 01:05:08;;;;;;;8.35;2.70;;;13.20;99.90;;;;;;6334825;22;20007;-79
2021/07/07 01:07:34;;;;;;;9.63;2.25;;;13.30;99.90;;;;;;6336258;22;20419;-79
2021/07/07 01:10:00;;;;;;;16.25;2.70;;;13.20;99.90;;;;;;6309085;22;20022;-79
2021/07/07 01:12:26;;;;;;;8.38;2.60;;;13.20;99.90;;;;;;6307087;22;20115;-79
2021/07/07 01:14:54;;;;;;;12.90;2.53;;;13.20;99.90;;;;;;6318712;22;20018;-78
2021/07/07 01:17:21;;;;;;;11.93;2.40;;;13.10;99.90;;;;;;6309521;22;20050;-78
2021/07/07 01:19:47;;;;;;;15.52;2.85;;;13.10;99.90;;;;;;6308093;22;20011;-78
2021/07/07 01:22:13;;;;;;;6.80;2.47;;;13.10;99.90;;;;;;6305344;22;20019;-78
2021/07/07 01:24:39;;;;;;;8.23;2.40;;;12.90;99.90;;;;;;6281730;22;20030;-79
2021/07/07 01:27:05;;;;;;;10.82;2.95;;;13.10;99.90;;;;;;6306766;22;20061;-78
2021/07/07 01:29:31;;;;;;;11.13;2.58;;;13.10;99.90;;;;;;6345381;22;20136;-79
2021/07/07 01:31:57;;;;;;;11.13;2.90;;;13.00;99.90;;;;;;6309191;22;20319;-79
2021/07/07 01:34:23;;;;;;;13.45;2.92;;;13.00;99.90;;;;;;6348355;22;20007;-79
2021/07/07 01:36:48;;;;;;;10.88;2.58;;;13.00;99.90;;;;;;6308102;22;20014;-78
2021/07/07 01:39:14;;;;;;;12.25;3.25;;;13.00;99.90;;;;;;6345066;22;20015;-78
2021/07/07 01:41:40;;;;;;;12.40;2.90;;;13.00;99.90;;;;;;6334448;22;20064;-79
2021/07/07 01:44:06;;;;;;;8.27;2.85;;;13.00;99.90;;;;;;6336477;22;20064;-78
2021/07/07 01:46:33;;;;;;;11.68;3.03;;;12.90;99.90;;;;;;6320396;22;20018;-79
2021/07/07 01:49:00;;;;;;;16.27;3.40;;;12.90;99.90;;;;;;6319498;22;20050;-79
2021/07/07 01:51:26;;;;;;;10.00;3.22;;;12.90;99.90;;;;;;6338162;22;20018;-79
2021/07/07 01:53:52;;;;;;;7.88;2.70;;;12.90;99.90;;;;;;6345812;22;20022;-78
2021/07/07 01:56:18;;;;;;;13.15;3.25;;;12.90;99.90;;;;;;6346076;22;20721;-78
2021/07/07 01:58:44;;;;;;;13.38;3.63;;;12.80;99.90;;;;;;6317883;22;20099;-79
2021/07/07 02:01:12;;;;;;;14.88;3.20;;;12.80;99.90;;;;;;6317981;22;20512;-78
2021/07/07 02:03:38;;;;;;;7.80;3.05;;;12.80;99.90;;;;;;6314842;22;20014;-78
2021/07/07 02:06:04;;;;;;;8.95;2.70;;;12.90;99.90;;;;;;6311472;22;20011;-78
2021/07/07 02:08:29;;;;;;;9.43;2.83;;;12.80;99.90;;;;;;6307929;22;20529;-78
2021/07/07 02:10:55;;;;;;;9.30;2.80;;;12.90;99.90;;;;;;6307738;22;20021;-78
2021/07/07 02:13:22;;;;;;;11.88;3.15;;;12.80;99.90;;;;;;6345127;22;20011;-78
2021/07/07 02:15:48;;;;;;;9.90;3.15;;;12.90;99.90;;;;;;6334611;22;20037;-78
2021/07/07 02:18:14;;;;;;;8.65;2.92;;;12.90;99.90;;;;;;6347768;22;20007;-78
2021/07/07 02:20:42;;;;;;;8.23;3.22;;;12.90;99.90;;;;;;6282048;22;20027;-78
2021/07/07 02:23:11;;;;;;;12.05;3.70;;;12.80;99.90;;;;;;6316656;22;20011;-78
2021/07/07 02:25:39;;;;;;;14.02;3.30;;;12.80;99.90;;;;;;6347072;22;20034;-78
2021/07/07 02:28:06;;;;;;;11.13;3.30;;;12.90;99.90;;;;;;6345128;22;20026;-78
2021/07/07 02:30:35;;;;;;;9.00;3.13;;;12.80;99.90;;;;;;6309142;22;20093;-78
2021/07/07 02:33:03;;;;;;;9.30;3.00;;;12.80;99.90;;;;;;6311434;22;20011;-79
2021/07/07 02:35:32;;;;;;;11.18;3.03;;;12.80;99.90;;;;;;6336120;22;20428;-79
2021/07/07 02:37:58;;;;;;;12.52;3.20;;;12.80;99.90;;;;;;6345661;22;20013;-79
2021/07/07 02:40:28;;;;;;;10.55;3.05;;;12.80;99.90;;;;;;6307463;22;20019;-79
2021/07/07 02:42:54;;;;;;;14.45;3.50;;;12.80;99.90;;;;;;6345672;22;20015;-78
2021/07/07 02:45:21;;;;;;;12.32;3.15;;;12.80;99.90;;;;;;6306844;22;20075;-78
2021/07/07 02:47:47;;;;;;;11.18;3.67;;;12.80;99.90;;;;;;6316065;22;20010;-79
2021/07/07 02:50:16;;;;;;;11.18;3.10;;;12.80;99.90;;;;;;6306691;22;20011;-79
2021/07/07 02:52:44;;;;;;;16.45;3.60;;;12.80;99.90;;;;;;6307647;22;20011;-78
2021/07/07 02:55:11;;;;;;;10.63;3.70;;;12.80;99.90;;;;;;6335085;22;20037;-78
2021/07/07 02:57:57;;;;;;;10.32;3.30;;;12.80;99.90;;;;;;6308276;22;20014;-78
2021/07/07 03:00:24;;;;;;;;;;;12.80;99.90;;;;;;6309051;22;20011;-78
2021/07/07 03:02:49;;;;;;;8.02;3.17;;;12.80;99.90;;;;;;6345442;22;19922;-79
2021/07/07 03:05:15;;;;;;;10.75;3.33;;;12.80;99.90;;;;;;6306068;22;20080;-78
2021/07/07 03:07:41;;;;;;;11.15;3.35;;;12.80;99.90;;;;;;6345340;22;20376;-79
2021/07/07 03:10:09;;;;;;;8.52;3.65;;;12.80;99.90;;;;;;6309151;22;20011;-79
2021/07/07 03:12:35;;;;;;;8.63;3.70;;;12.80;99.90;;;;;;6307454;22;20085;-79
2021/07/07 03:15:01;;;;;;;7.22;3.30;;;12.80;99.90;;;;;;6345046;22;20499;-78
2021/07/07 03:17:26;;;;;;;7.03;3.15;;;12.90;99.90;;;;;;6325008;22;20103;-79
2021/07/07 03:20:16;;;;;;;9.10;3.42;;;12.90;99.90;;;;;;6318949;22;20015;-79
2021/07/07 03:22:42;;;;;;;8.73;3.17;;;12.90;99.90;;;;;;6338685;22;20011;-78
2021/07/07 03:25:09;;;;;;;8.48;3.55;;;12.90;99.90;;;;;;6310452;22;20019;-79
2021/07/07 03:27:35;;;;;;;12.00;3.55;;;12.90;99.90;;;;;;6310341;22;20011;-79
2021/07/07 03:30:03;;;;;;;9.48;3.30;;;12.90;99.90;;;;;;6309818;22;20432;-78
2021/07/07 03:32:29;;;;;;;9.98;3.47;;;12.90;99.90;;;;;;6344233;22;20011;-79
2021/07/07 03:34:55;;;;;;;13.55;3.50;;;12.90;99.90;;;;;;6317352;22;20064;-78
2021/07/07 03:37:21;;;;;;;16.35;3.65;;;12.90;99.90;;;;;;6317961;22;20496;-79
2021/07/07 03:39:47;;;;;;;12.02;3.47;;;12.90;99.90;;;;;;6347164;22;20022;-79
2021/07/07 03:42:13;;;;;;;11.20;3.50;;;13.00;99.90;;;;;;6346931;22;20477;-79
2021/07/07 03:44:38;;;;;;;15.77;3.83;;;12.90;99.90;;;;;;6346047;22;20010;-78
2021/07/07 03:47:04;;;;;;;7.63;3.33;;;13.00;99.90;;;;;;6346178;22;20420;-79
2021/07/07 03:49:30;;;;;;;13.55;3.58;;;12.90;99.90;;;;;;6317391;22;20127;-78
2021/07/07 03:51:56;;;;;;;9.82;3.40;;;13.00;99.90;;;;;;6336245;22;20010;-79
2021/07/07 03:54:23;;;;;;;9.25;3.78;;;13.00;99.90;;;;;;6315515;22;20015;-78
2021/07/07 03:56:55;;;;;;;8.23;3.33;;;13.10;99.90;;;;;;6280549;22;20392;-78
2021/07/07 03:59:22;;;;;;;10.38;3.55;;;13.10;99.90;;;;;;6316482;22;20011;-79
2021/07/07 04:01:49;;;;;;;6.68;3.08;;;13.10;99.90;;;;;;6306526;22;20011;-78
2021/07/07 04:04:16;;;;;;;8.15;3.20;;;13.10;99.90;;;;;;6337878;22;20006;-79
2021/07/07 04:06:43;;;;;;;9.48;3.25;;;13.20;99.90;;;;;;6306318;22;20022;-79
2021/07/07 04:09:09;;;;;;;8.05;3.30;;;13.20;99.90;;;;;;6306435;22;20307;-78
2021/07/07 04:11:35;;;;;;;10.40;3.58;;;13.30;99.90;;;;;;6319462;22;20007;-79
2021/07/07 04:14:01;;;;;;;13.38;3.83;;;13.30;99.90;;;;;;6306077;22;20017;-78
2021/07/07 04:16:27;;;;;;;14.35;3.55;;;13.40;99.90;;;;;;6334492;22;20034;-78
2021/07/07 04:18:53;;;;;;;8.95;3.70;;;13.40;99.90;;;;;;6345177;22;20013;-79
2021/07/07 04:21:19;;;;;;;10.48;3.47;;;13.40;99.90;;;;;;6308516;22;20079;-78
2021/07/07 04:23:45;;;;;;;7.70;2.83;;;13.40;99.90;;;;;;6305925;22;20063;-78
2021/07/07 04:26:11;;;;;;;19.02;3.50;;;13.50;99.90;;;;;;6318792;22;20334;-78
2021/07/07 04:28:37;;;;;;;10.95;3.47;;;13.60;99.90;;;;;;6347501;22;20014;-77
2021/07/07 04:31:02;;;;;;;11.85;3.55;;;13.60;99.90;;;;;;6309559;22;20072;-78
2021/07/07 04:33:28;;;;;;;5.40;2.83;;;13.80;99.90;;;;;;6310909;22;20103;-78
2021/07/07 04:35:54;;;;;;;9.32;3.08;;;14.10;99.90;;;;;;6308631;22;20011;-78
2021/07/07 04:38:20;;;;;;;9.00;3.13;;;14.70;99.90;;;;;;6307322;22;20030;-78
2021/07/07 04:40:45;;;;;;;7.72;2.80;;;15.70;99.90;;;;;;6346348;22;20435;-79
2021/07/07 04:43:13;;;;;;;15.50;2.88;;;16.20;99.90;;;;;;6309183;22;20347;-78
2021/07/07 04:45:39;;;;;;;8.50;3.20;;;16.80;99.90;;;;;;6345916;22;20015;-78
2021/07/07 04:48:05;;;;;;;9.63;3.10;;;17.20;99.90;;;;;;6346801;22;20369;-79
2021/07/07 04:50:32;;;;;;;7.63;3.10;;;17.50;99.90;;;;;;6308903;22;20022;-78
2021/07/07 04:52:58;;;;;;;9.93;2.70;;;17.90;99.90;;;;;;6336699;22;20136;-79
2021/07/07 04:55:24;;;;;;;6.22;2.83;;;18.10;99.90;;;;;;6306453;22;20015;-78
2021/07/07 04:57:50;;;;;;;8.32;2.58;;;18.30;99.90;;;;;;6345996;22;20327;-76
2021/07/07 05:00:21;;;;;;;6.55;2.63;;;18.50;99.90;;;;;;6308603;22;20089;-80
2021/07/07 05:02:48;;;;;;;10.90;2.85;;;18.00;99.90;;;;;;6317067;22;20450;-78
2021/07/07 05:05:16;;;;;;;11.02;3.08;;;17.30;99.90;;;;;;6306392;22;20086;-77
2021/07/07 05:07:44;;;;;;;8.07;3.08;;;16.90;99.90;;;;;;6316056;22;20403;-78
2021/07/07 05:10:11;;;;;;;6.28;3.00;;;16.50;99.90;;;;;;6333548;22;20023;-78
2021/07/07 05:12:37;;;;;;;7.60;2.95;;;16.20;99.90;;;;;;6306091;22;20071;-78
2021/07/07 05:15:04;;;;;;;13.82;3.03;;;16.00;99.90;;;;;;6345277;22;20091;-77
2021/07/07 05:17:30;;;;;;;8.23;3.05;;;15.80;99.90;;;;;;6306450;22;20023;-79
2021/07/07 05:19:59;;;;;;;7.03;2.88;;;15.70;99.90;;;;;;6305561;22;20387;-78
2021/07/07 05:22:27;;;;;;;9.15;3.08;;;15.60;99.90;;;;;;6335185;22;20050;-79
2021/07/07 05:24:53;;;;;;;8.02;3.00;;;15.60;99.90;;;;;;6344865;22;20010;-78
2021/07/07 05:27:19;;;;;;;9.40;2.83;;;15.50;99.90;;;;;;6309740;22;20117;-77
2021/07/07 05:29:44;;;;;;;6.07;3.03;;;15.60;99.90;;;;;;6346242;22;20356;-78
2021/07/07 05:32:11;;;;;;;9.73;2.95;;;15.60;99.90;;;;;;6344354;22;20093;-76
2021/07/07 05:34:39;;;;;;;11.23;2.95;;;15.60;99.90;;;;;;6307043;22;20026;-76
2021/07/07 05:37:05;;;;;;;8.43;2.70;;;15.80;99.90;;;;;;6336586;22;20057;-77
2021/07/07 05:39:31;;;;;;;10.50;2.92;;;16.00;99.90;;;;;;6346197;22;20019;-78
2021/07/07 05:41:57;;;;;;;5.80;2.50;;;16.10;99.90;;;;;;6347638;22;20121;-78
2021/07/07 05:44:24;;;;;;;5.53;2.58;;;16.30;99.90;;;;;;6345132;22;20342;-78
2021/07/07 05:46:50;;;;;;;6.95;2.55;;;16.40;99.90;;;;;;6305797;22;20153;-78
2021/07/07 05:49:16;;;;;;;6.72;2.53;;;16.50;99.90;;;;;;6343225;22;20038;-78
2021/07/07 05:51:42;;;;;;;7.78;2.55;;;16.50;99.90;;;;;;6341142;22;20011;-77
2021/07/07 05:54:08;;;;;;;5.85;2.53;;;16.70;99.90;;;;;;6307209;22;20053;-79
2021/07/07 05:56:34;;;;;;;8.98;2.80;;;16.70;99.90;;;;;;6307635;22;20011;-78
2021/07/07 05:59:01;;;;;;;5.97;2.72;;;16.70;99.90;;;;;;6307358;22;20057;-78
2021/07/07 06:01:26;;;;;;;8.15;2.70;;;16.60;99.90;;;;;;6306888;22;20030;-77
2021/07/07 06:03:52;;;;;;;3.92;2.30;;;16.70;99.90;;;;;;6308635;22;20015;-79
2021/07/07 06:06:18;;;;;;;6.72;2.60;;;16.70;99.90;;;;;;6314576;22;20007;-78
2021/07/07 06:08:44;;;;;;;9.68;2.47;;;16.70;99.90;;;;;;6316775;22;20091;-78
2021/07/07 06:11:10;;;;;;;8.90;2.47;;;16.70;99.90;;;;;;6309431;22;20434;-79
2021/07/07 06:13:36;;;;;;;13.30;2.90;;;16.60;99.90;;;;;;6307547;22;20034;-78
2021/07/07 06:16:02;;;;;;;8.35;2.65;;;16.70;99.90;;;;;;6308203;22;20434;-78
2021/07/07 06:18:28;;;;;;;9.43;2.92;;;16.80;99.90;;;;;;6335495;22;20030;-77
2021/07/07 06:20:54;;;;;;;5.93;2.55;;;16.90;99.90;;;;;;6334773;22;20508;-78
2021/07/07 06:23:20;;;;;;;8.20;2.58;;;16.90;99.90;;;;;;6343877;22;20447;-78
2021/07/07 06:25:46;;;;;;;10.52;2.80;;;16.90;99.90;;;;;;6308620;22;20011;-78
2021/07/07 06:28:12;;;;;;;10.57;2.45;;;17.00;99.90;;;;;;6307028;22;20019;-78
2021/07/07 06:30:37;;;;;;;7.97;2.40;;;17.00;99.90;;;;;;6314556;22;20299;-79
2021/07/07 06:33:04;;;;;;;9.70;2.60;;;17.00;99.90;;;;;;6303874;22;20019;-78
2021/07/07 06:35:31;;;;;;;8.88;2.45;;;17.10;99.90;;;;;;6335079;22;20042;-79
2021/07/07 06:37:58;;;;;;;8.07;2.50;;;17.20;99.90;;;;;;6344679;22;20383;-80
2021/07/07 06:40:25;;;;;;;11.43;2.50;;;17.20;99.90;;;;;;6308252;22;20503;-78
2021/07/07 06:42:51;;;;;;;5.57;2.30;;;17.30;99.90;;;;;;6308557;22;20014;-79
2021/07/07 06:45:19;;;;;;;6.57;2.28;;;17.30;99.90;;;;;;6337177;22;20020;-80
2021/07/07 06:47:48;;;;;;;5.15;2.20;;;17.40;99.90;;;;;;6282249;22;20311;-80
2021/07/07 06:50:16;;;;;;;10.02;2.42;;;17.50;99.90;;;;;;6345920;22;20037;-81
2021/07/07 06:52:43;;;;;;;10.57;2.25;;;17.60;99.90;;;;;;6346233;22;20018;-78
2021/07/07 06:55:09;;;;;;;5.20;1.90;;;17.70;99.90;;;;;;6307780;22;20011;-80
2021/07/07 06:57:35;;;;;;;8.57;2.10;;;17.90;99.90;;;;;;6306045;22;20011;-80
2021/07/07 07:00:08;;;;;;;3.40;1.98;;;17.90;99.90;;;;;;6318649;22;20339;-80
2021/07/07 07:02:34;;;;;;;6.72;1.95;;;18.00;99.90;;;;;;6348682;22;20011;-80
2021/07/07 07:04:59;;;;;;;5.47;2.08;;;18.00;99.90;;;;;;6309914;22;20114;-80
2021/07/07 07:07:26;;;;;;;11.60;2.10;;;18.10;99.90;;;;;;6309533;22;20045;-79
2021/07/07 07:09:52;;;;;;;9.90;2.55;;;18.20;99.90;;;;;;6338195;22;20010;-79
2021/07/07 07:12:18;;;;;;;6.70;2.30;;;18.40;99.90;;;;;;6310294;22;20017;-80
2021/07/07 07:14:44;;;;;;;8.90;2.30;;;18.40;99.90;;;;;;6308449;22;20086;-79
2021/07/07 07:17:09;;;;;;;5.28;2.00;;;18.60;99.90;;;;;;6338603;22;20045;-79
2021/07/07 07:19:35;;;;;;;10.70;2.30;;;18.50;99.90;;;;;;6309963;22;20021;-80
2021/07/07 07:22:01;;;;;;;5.93;2.20;;;18.40;99.90;;;;;;6309336;22;20022;-79
2021/07/07 07:24:30;;;;;;;8.15;1.98;;;18.50;99.90;;;;;;6345117;22;20044;-79
2021/07/07 07:26:59;;;;;;;8.73;2.28;;;18.60;99.90;;;;;;6309468;22;20014;-79
2021/07/07 07:29:25;;;;;;;6.30;2.10;;;18.60;99.90;;;;;;6348330;22;20011;-79
2021/07/07 07:31:51;;;;;;;5.68;2.22;;;18.70;99.90;;;;;;6309914;22;20024;-80
2021/07/07 07:34:17;;;;;;;7.75;2.53;;;18.70;99.90;;;;;;6310150;22;20094;-79
2021/07/07 07:36:43;;;;;;;5.82;2.30;;;18.70;99.90;;;;;;6343509;22;20303;-80
2021/07/07 07:39:15;;;;;;;10.23;3.17;;;18.70;99.90;;;;;;6337643;22;20011;-79
2021/07/07 07:41:41;;;;;;;8.73;2.35;;;18.80;99.90;;;;;;6309572;22;20335;-79
2021/07/07 07:44:08;;;;;;;6.78;2.58;;;18.90;99.90;;;;;;6309758;22;20014;-80
2021/07/07 07:46:34;;;;;;;7.90;2.33;;;18.80;99.90;;;;;;6283494;22;20017;-80
2021/07/07 07:49:01;;;;;;;6.13;2.28;;;18.80;99.90;;;;;;6347514;22;20319;-79
2021/07/07 07:51:31;;;;;;;11.07;2.50;;;18.90;99.90;;;;;;6308941;22;20023;-79
2021/07/07 07:53:58;;;;;;;7.93;2.20;;;18.90;99.90;;;;;;6318978;22;20061;-79
2021/07/07 07:56:25;;;;;;;8.27;2.60;;;19.00;99.90;;;;;;6310416;22;20011;-83
2021/07/07 07:58:50;;;;;;;7.88;2.35;;;19.00;99.90;;;;;;6345898;22;20080;-82
2021/07/07 08:01:20;;;;;;;11.25;2.83;;;19.00;99.90;;;;;;6344136;22;20623;-83
2021/07/07 08:03:46;;;;;;;9.57;2.40;;;18.90;99.90;;;;;;6341848;22;20048;-83
2021/07/07 08:06:12;;;;;;;8.27;2.60;;;18.90;99.90;;;;;;6345349;22;20010;-81
2021/07/07 08:08:38;;;;;;;6.00;2.10;;;19.00;99.90;;;;;;6280333;22;20018;-82
2021/07/07 08:11:04;;;;;;;8.82;2.42;;;19.00;99.90;;;;;;6334103;22;20014;-82
2021/07/07 08:13:31;;;;;;;9.43;2.63;;;19.10;99.90;;;;;;6284082;22;20326;-82
2021/07/07 08:15:57;;;;;;;9.30;2.72;;;19.30;99.90;;;;;;6347855;22;20011;-82
2021/07/07 08:18:23;;;;;;;6.22;2.63;;;19.50;99.90;;;;;;6348109;22;20021;-82
2021/07/07 08:20:48;;;;;;;12.95;2.50;;;19.60;99.90;;;;;;6308028;22;20018;-82
2021/07/07 08:23:14;;;;;;;6.95;2.10;;;19.70;99.90;;;;;;6336602;22;20091;-82
2021/07/07 08:25:40;;;;;;;10.38;2.30;;;20.00;99.90;;;;;;6319617;22;20014;-82
2021/07/07 08:28:06;;;;;;;5.90;2.10;;;20.10;99.90;;;;;;6338236;22;20010;-83
2021/07/07 08:30:52;;;;;;;9.23;2.28;;;20.20;99.90;;;;;;6313791;22;20508;-82
2021/07/07 08:33:18;;;;;;;5.50;2.00;;;20.40;99.90;;;;;;6337551;22;20006;-82
2021/07/07 08:35:44;;;;;;;7.82;2.38;;;20.60;99.90;;;;;;6308523;22;20018;-82
2021/07/07 08:38:10;;;;;;;6.22;1.90;;;20.90;99.90;;;;;;6309346;22;20054;-82
2021/07/07 08:40:36;;;;;;;6.60;2.15;;;21.10;99.90;;;;;;6319612;22;20453;-82
2021/07/07 08:43:02;;;;;;;7.38;2.05;;;21.00;99.90;;;;;;6337339;22;20018;-82
2021/07/07 08:45:29;;;;;;;9.40;2.40;;;21.00;99.90;;;;;;6309483;22;20415;-82
2021/07/07 08:47:54;;;;;;;10.35;2.13;;;21.00;99.90;;;;;;6318687;22;20011;-82
2021/07/07 08:50:24;;;;;;;5.28;2.03;;;21.00;99.90;;;;;;6309879;22;20030;-82
2021/07/07 08:52:51;;;;;;;8.98;2.10;;;21.10;99.90;;;;;;6308659;22;20022;-83
2021/07/07 08:55:22;;;;;;;6.88;2.20;;;21.10;99.90;;;;;;6320575;22;20144;-82
2021/07/07 08:57:50;;;;;;;8.50;2.03;;;21.20;99.90;;;;;;6336403;22;20091;-80
2021/07/07 09:00:28;;;;;;;26.23;3.00;;;21.30;99.90;;;;;;6347243;22;20011;-79
2021/07/07 09:02:56;;;;;;;9.93;1.90;;;21.40;99.90;;;;;;6307896;22;20030;-80
2021/07/07 09:05:24;;;;;;;7.15;1.95;;;21.40;99.90;;;;;;6319510;22;20439;-80
2021/07/07 09:07:50;;;;;;;5.97;1.80;;;21.60;99.90;;;;;;6280951;22;20090;-77
2021/07/07 09:10:28;;;;;;;8.85;2.08;;;21.50;99.90;;;;;;6338092;22;20064;-79
2021/07/07 09:13:13;;;;;;;5.03;1.60;;;21.50;99.90;;;;;;6322409;22;20006;-80
2021/07/07 09:15:40;;;;;;;5.78;1.55;;;21.40;99.90;;;;;;6322408;22;20052;-79
2021/07/07 09:18:07;;;;;;;5.95;1.58;;;21.40;99.90;;;;;;6309869;22;20042;-81
2021/07/07 09:20:39;;;;;;;5.72;1.50;;;21.40;99.90;;;;;;6321682;22;20697;-83
2021/07/07 09:23:21;;;;;;;5.85;1.70;;;21.20;99.90;;;;;;6308540;22;20419;-80
2021/07/07 09:26:02;;;;;;;9.52;2.00;;;21.40;99.90;;;;;;6349690;22;20086;-80
2021/07/07 09:28:28;;;;;;;8.32;1.90;;;21.50;99.90;;;;;;6308699;22;20093;-80
2021/07/07 09:30:56;;;;;;;9.93;2.10;;;21.60;99.90;;;;;;6307258;22;20089;-81
2021/07/07 09:33:43;;;;;;;6.38;1.85;;;21.80;99.90;;;;;;6292468;22;20106;-84
2021/07/07 09:36:29;;;;;;;7.40;1.95;;;22.10;99.90;;;;;;6261870;22;20030;-85
2021/07/07 09:39:16;;;;;;;5.28;1.70;;;22.20;99.90;;;;;;6261296;22;20020;-83
2021/07/07 09:41:44;;;;;;;5.00;1.88;;;22.40;99.90;;;;;;6304551;22;20082;-83
2021/07/07 09:44:34;;;;;;;6.45;1.65;;;22.30;99.90;;;;;;6283178;22;20704;-84
2021/07/07 09:47:04;;;;;;;8.90;1.80;;;22.30;99.90;;;;;;6306205;22;20086;-83
2021/07/07 09:49:33;;;;;;;5.07;1.45;;;22.40;99.90;;;;;;6278687;22;20093;-83
2021/07/07 09:52:22;;;;;;;8.95;1.83;;;22.60;99.90;;;;;;6262934;22;20185;-82
2021/07/07 09:54:48;;;;;;;9.77;1.83;;;22.70;99.90;;;;;;6277467;22;20090;-83
2021/07/07 09:57:15;;;;;;;8.90;1.90;;;22.90;99.90;;;;;;6278567;22;20011;-83
2021/07/07 09:59:41;;;;;;;7.82;1.85;;;23.10;99.90;;;;;;6277102;22;20023;-85
2021/07/07 10:02:08;;;;;;;7.80;1.92;;;23.00;99.90;;;;;;6315314;22;20464;-83
2021/07/07 10:04:55;;;;;;;5.07;1.50;;;23.20;99.90;;;;;;6259326;22;20022;-83
2021/07/07 10:08:00;;;;;;;8.18;2.30;;;23.40;99.90;;;;;;6260103;22;20039;-83
2021/07/07 10:10:47;;;;;;;9.05;2.10;;;23.40;99.90;;;;;;6260689;22;20073;-81
2021/07/07 10:13:28;;;;;;;;;;;;;;;;;;;;;
2021/07/07 10:16:18;;;;;;;8.35;2.20;;;23.30;99.90;;;;;;6283597;22;20485;-82
2021/07/07 10:19:05;;;;;;;6.88;2.10;;;23.40;99.90;;;;;;6283004;22;20081;-83
2021/07/07 10:21:33;;;;;;;9.80;2.50;;;23.60;99.90;;;;;;6279394;22;20825;-83
2021/07/07 10:23:59;;;;;;;10.95;1.95;;;23.40;99.90;;;;;;6252206;22;20410;-83
2021/07/07 10:26:25;;;;;;;8.82;2.20;;;23.40;99.90;;;;;;6315595;22;20015;-83
2021/07/07 10:28:51;;;;;;;10.45;1.92;;;23.60;99.90;;;;;;6252544;22;20160;-82
2021/07/07 10:31:18;;;;;;;10.10;2.08;;;24.00;99.90;;;;;;6252518;22;20022;-83
2021/07/07 10:33:44;;;;;;;9.98;2.20;;;24.20;99.90;;;;;;6300031;22;20030;-83
2021/07/07 10:36:16;;;;;;;9.20;2.20;;;24.30;99.90;;;;;;6353936;22;20026;-82
2021/07/07 10:39:04;;;;;;;8.50;2.35;;;24.30;99.90;;;;;;6351493;22;20458;-83
2021/07/07 10:41:46;;;;;;;6.78;1.77;;;24.40;99.90;;;;;;6288487;22;20015;-82
2021/07/07 10:44:34;;;;;;;6.35;2.00;;;24.30;99.90;;;;;;6341005;22;20010;-82
2021/07/07 10:47:02;;;;;;;10.60;2.45;;;24.70;99.90;;;;;;6350742;22;20019;-82
2021/07/07 10:49:42;;;;;;;8.75;2.22;;;25.10;99.90;;;;;;6282198;22;20021;-82
2021/07/07 10:52:10;;;;;;;8.50;2.10;;;25.00;99.90;;;;;;6334111;22;20007;-82
2021/07/07 10:54:38;;;;;;;7.32;1.65;;;24.60;99.90;;;;;;6308164;22;20139;-82
2021/07/07 10:57:06;;;;;;;8.75;1.98;;;24.30;99.90;;;;;;6307409;22;20014;-83
2021/07/07 10:59:38;;;;;;;11.65;2.03;;;24.00;99.90;;;;;;6346842;22;20041;-82
2021/07/07 11:02:18;;;;;;;8.48;1.67;;;24.10;99.90;;;;;;6306777;22;20018;-83
2021/07/07 11:05:02;;;;;;;7.60;1.80;;;24.20;99.90;;;;;;6310952;22;20469;-82
2021/07/07 11:07:36;;;;;;;4.43;1.65;;;24.30;99.90;;;;;;6315924;22;20027;-82
2021/07/07 11:10:05;;;;;;;4.47;1.38;;;24.20;99.90;;;;;;6308528;22;20025;-81
2021/07/07 11:12:37;;;;;;;9.00;2.03;;;24.10;99.90;;;;;;6306277;22;20753;-82
2021/07/07 11:15:15;;;;;;;6.57;2.13;;;24.30;99.90;;;;;;6346592;22;20014;-82
2021/07/07 11:17:43;;;;;;;10.18;2.00;;;24.50;99.90;;;;;;6345433;22;20076;-82
2021/07/07 11:20:13;;;;;;;6.68;1.63;;;24.70;99.90;;;;;;6280337;22;20018;-82
2021/07/07 11:22:44;;;;;;;8.38;1.70;;;24.80;99.90;;;;;;6333649;22;20007;-81
2021/07/07 11:25:15;;;;;;;5.07;1.70;;;24.70;99.90;;;;;;6308999;22;20087;-82
2021/07/07 11:27:44;;;;;;;7.82;1.90;;;24.70;99.90;;;;;;6306466;22;20319;-80
2021/07/07 11:30:13;;;;;;;8.00;1.83;;;24.90;99.90;;;;;;6283759;22;20025;-82
2021/07/07 11:32:45;;;;;;;7.82;2.25;;;25.20;99.90;;;;;;6276002;22;20023;-82
2021/07/07 11:35:16;;;;;;;9.80;1.88;;;25.40;99.90;;;;;;6305067;22;20057;-82
2021/07/07 11:37:43;;;;;;;6.00;1.50;;;25.80;99.90;;;;;;6276683;22;20439;-79
2021/07/07 11:40:19;;;;;;;6.15;1.83;;;26.00;99.90;;;;;;6277989;22;20015;-80
2021/07/07 11:43:10;;;;;;;9.20;1.70;;;25.80;99.10;;;;;;6279020;22;20034;-79
2021/07/07 11:45:38;;;;;;;7.22;2.03;;;26.20;99.20;;;;;;6278297;22;20331;-80
2021/07/07 11:50:39;;;;;;;13.52;2.50;;;26.30;99.00;;;;;;6279245;22;20015;-81
2021/07/07 11:53:07;;;;;;;7.38;1.80;;;26.30;98.70;;;;;;6251666;22;20019;-80
2021/07/07 11:55:58;;;;;;;7.15;2.10;;;26.40;97.10;;;;;;6278535;22;20087;-80
2021/07/07 11:58:33;;;;;;;5.82;1.98;;;26.50;98.20;;;;;;6316736;22;20086;-80
2021/07/07 12:01:02;;;;;;;8.27;2.15;;;26.70;98.50;;;;;;6277656;22;20041;-79
2021/07/07 12:03:28;;;;;;;7.50;2.03;;;26.70;99.10;;;;;;6314309;22;20015;-79
2021/07/07 12:05:57;;;;;;;7.22;1.92;;;26.30;99.30;;;;;;6278500;22;20114;-82
2021/07/07 12:08:28;;;;;;;8.35;2.30;;;26.80;99.30;;;;;;6278134;22;20462;-79
2021/07/07 12:11:24;;;;;;;6.13;1.90;;;27.00;98.20;;;;;;6278091;22;20027;-81
2021/07/07 12:13:51;;;;;;;9.35;2.22;;;27.30;99.20;;;;;;6126807;23;20397;-81
2021/07/07 12:16:37;;;;;;;9.25;2.42;;;27.00;98.10;;;;;;6126464;23;20048;-81
2021/07/07 12:19:10;;;;;;;7.88;2.22;;;26.80;98.50;;;;;;6151103;23;20017;-81
2021/07/07 12:21:46;;;;;;;10.80;2.33;;;26.10;98.60;;;;;;6127354;23;20045;-80
2021/07/07 12:24:40;;;;;;;8.05;2.67;;;25.50;99.50;;;;;;6126303;23;20089;-80
2021/07/07 12:27:14;;;;;;;9.07;2.17;;;25.00;99.90;;;;;;6152001;23;20044;-81
2021/07/07 12:29:42;;;;;;;11.43;2.60;;;24.70;99.90;;;;;;6137363;23;20021;-80
2021/07/07 12:32:25;;;;;;;7.18;2.20;;;24.40;99.90;;;;;;6152924;23;20442;-80
2021/07/07 12:34:53;;;;;;;9.07;2.40;;;24.10;99.90;;;;;;6180484;23;20152;-81
2021/07/07 12:37:20;;;;;;;5.50;2.20;;;23.70;99.90;;;;;;6155255;23;20167;-81
2021/07/07 12:39:54;;;;;;;12.45;2.58;;;23.50;99.90;;;;;;6155469;23;20422;-80
2021/07/07 12:42:27;;;;;;;9.07;3.05;;;23.20;99.90;;;;;;6154576;23;20020;-81
2021/07/07 12:45:10;;;;;;;6.55;2.90;;;22.60;99.90;;;;;;6181790;23;20088;-81
2021/07/07 12:47:36;;;;;;;6.63;2.78;;;22.40;99.90;;;;;;6110182;23;20017;-82
2021/07/07 12:50:22;;;;;;;7.10;2.97;;;22.40;99.90;;;;;;6227858;22;20457;-83
2021/07/07 12:52:48;;;;;;;6.90;2.70;;;22.50;99.90;;;;;;6308778;22;20322;-82
2021/07/07 12:55:23;;;;;;;9.70;3.15;;;23.10;99.90;;;;;;6320943;22;20074;-81
2021/07/07 12:58:03;;;;;;;7.65;2.90;;;23.80;99.90;;;;;;6280746;22;20011;-80